sensor_id;sensor_type;location;lat;lon;timestamp;pressure;altitude;pressure_sealevel;temperature;humidity
21361;BME280;10839;43.206;23.550;2023-04-01T00:00:32;96143.72;;;17.39;40.10
21361;BME280;10839;43.206;23.550;2023-04-01T00:02:58;96148.84;;;17.36;40.27
21361;BME280;10839;43.206;23.550;2023-04-01T00:05:24;96139.13;;;17.03;40.95
21361;BME280;10839;43.206;23.550;2023-04-01T00:07:50;96138.75;;;17.26;40.61
21361;BME280;10839;43.206;23.550;2023-04-01T00:10:16;96126.81;;;17.32;40.51
21361;BME280;10839;43.206;23.550;2023-04-01T00:12:42;96134.75;;;17.44;40.35
21361;BME280;10839;43.206;23.550;2023-04-01T00:15:10;96134.09;;;17.27;40.71
21361;BME280;10839;43.206;23.550;2023-04-01T00:17:36;96141.81;;;17.03;41.30
21361;BME280;10839;43.206;23.550;2023-04-01T00:20:04;96134.59;;;17.19;41.17
21361;BME280;10839;43.206;23.550;2023-04-01T00:22:31;96137.59;;;17.22;41.22
21361;BME280;10839;43.206;23.550;2023-04-01T00:24:57;96143.56;;;17.19;41.51
21361;BME280;10839;43.206;23.550;2023-04-01T00:27:22;96139.75;;;16.84;42.47
21361;BME280;10839;43.206;23.550;2023-04-01T00:29:48;96147.66;;;17.22;41.93
21361;BME280;10839;43.206;23.550;2023-04-01T00:32:14;96146.28;;;17.19;42.03
21361;BME280;10839;43.206;23.550;2023-04-01T00:34:41;96147.97;;;17.25;42.28
21361;BME280;10839;43.206;23.550;2023-04-01T00:37:07;96142.19;;;16.85;43.06
21361;BME280;10839;43.206;23.550;2023-04-01T00:39:34;96127.72;;;17.06;43.21
21361;BME280;10839;43.206;23.550;2023-04-01T00:42:02;96116.16;;;17.26;42.99
21361;BME280;10839;43.206;23.550;2023-04-01T00:44:31;96121.00;;;17.19;43.44
21361;BME280;10839;43.206;23.550;2023-04-01T00:46:58;96118.47;;;17.07;43.82
21361;BME280;10839;43.206;23.550;2023-04-01T00:49:37;96109.03;;;17.15;43.78
21361;BME280;10839;43.206;23.550;2023-04-01T00:52:07;96090.88;;;17.30;43.07
21361;BME280;10839;43.206;23.550;2023-04-01T00:54:35;96095.28;;;17.36;42.81
21361;BME280;10839;43.206;23.550;2023-04-01T00:57:21;96094.03;;;17.12;42.85
21361;BME280;10839;43.206;23.550;2023-04-01T00:59:51;96088.72;;;17.32;42.84
21361;BME280;10839;43.206;23.550;2023-04-01T01:02:19;96078.38;;;17.29;42.60
21361;BME280;10839;43.206;23.550;2023-04-01T01:04:45;96072.38;;;17.27;42.63
21361;BME280;10839;43.206;23.550;2023-04-01T01:07:23;96072.81;;;17.09;42.63
21361;BME280;10839;43.206;23.550;2023-04-01T01:15:26;96047.69;;;17.39;42.13
21361;BME280;10839;43.206;23.550;2023-04-01T01:18:09;96050.00;;;17.15;42.54
21361;BME280;10839;43.206;23.550;2023-04-01T01:21:03;96058.84;;;17.37;42.16
21361;BME280;10839;43.206;23.550;2023-04-01T01:24:40;96077.41;;;17.45;42.60
21361;BME280;10839;43.206;23.550;2023-04-01T01:27:10;96074.25;;;17.22;42.41
21361;BME280;10839;43.206;23.550;2023-04-01T01:37:52;96045.22;;;17.32;42.09
21361;BME280;10839;43.206;23.550;2023-04-01T01:40:20;96050.25;;;17.55;41.71
21361;BME280;10839;43.206;23.550;2023-04-01T01:42:51;96031.50;;;17.54;40.89
21361;BME280;10839;43.206;23.550;2023-04-01T01:45:21;96040.44;;;17.49;40.69
21361;BME280;10839;43.206;23.550;2023-04-01T01:47:50;96041.16;;;17.30;40.72
21361;BME280;10839;43.206;23.550;2023-04-01T01:50:17;96033.91;;;17.45;40.08
21361;BME280;10839;43.206;23.550;2023-04-01T01:52:43;96039.84;;;17.42;39.83
21361;BME280;10839;43.206;23.550;2023-04-01T01:58:04;96014.19;;;17.23;39.36
21361;BME280;10839;43.206;23.550;2023-04-01T02:00:33;96015.88;;;17.34;39.07
21361;BME280;10839;43.206;23.550;2023-04-01T02:03:01;96009.66;;;17.44;38.56
21361;BME280;10839;43.206;23.550;2023-04-01T02:05:28;96024.13;;;17.49;38.36
21361;BME280;10839;43.206;23.550;2023-04-01T02:08:06;96026.25;;;17.42;38.15
21361;BME280;10839;43.206;23.550;2023-04-01T02:10:36;96029.91;;;17.63;37.52
21361;BME280;10839;43.206;23.550;2023-04-01T02:13:10;96022.53;;;17.58;37.48
21361;BME280;10839;43.206;23.550;2023-04-01T02:15:44;96020.06;;;17.57;37.12
21361;BME280;10839;43.206;23.550;2023-04-01T02:18:13;96028.44;;;17.45;37.34
21361;BME280;10839;43.206;23.550;2023-04-01T02:20:41;96011.63;;;17.58;37.21
21361;BME280;10839;43.206;23.550;2023-04-01T02:23:10;96019.84;;;17.68;36.79
21361;BME280;10839;43.206;23.550;2023-04-01T02:25:37;96024.47;;;17.63;36.97
21361;BME280;10839;43.206;23.550;2023-04-01T02:28:06;95996.31;;;17.42;37.39
21361;BME280;10839;43.206;23.550;2023-04-01T02:30:35;96001.84;;;17.52;37.10
21361;BME280;10839;43.206;23.550;2023-04-01T02:33:03;95988.25;;;17.57;36.79
21361;BME280;10839;43.206;23.550;2023-04-01T02:35:33;95994.75;;;17.46;37.12
21361;BME280;10839;43.206;23.550;2023-04-01T02:37:59;95995.69;;;17.25;37.56
21361;BME280;10839;43.206;23.550;2023-04-01T02:40:26;95992.03;;;17.46;37.10
21361;BME280;10839;43.206;23.550;2023-04-01T02:42:52;95988.22;;;17.47;37.09
21361;BME280;10839;43.206;23.550;2023-04-01T02:45:18;96006.13;;;17.38;37.11
21361;BME280;10839;43.206;23.550;2023-04-01T02:47:44;95995.69;;;17.25;37.17
21361;BME280;10839;43.206;23.550;2023-04-01T02:50:10;95997.41;;;17.36;37.19
21361;BME280;10839;43.206;23.550;2023-04-01T02:52:36;96003.88;;;17.30;37.37
21361;BME280;10839;43.206;23.550;2023-04-01T02:55:03;96018.88;;;17.33;37.26
21361;BME280;10839;43.206;23.550;2023-04-01T02:57:30;96002.22;;;17.24;37.92
21361;BME280;10839;43.206;23.550;2023-04-01T02:59:56;96002.84;;;17.36;37.82
21361;BME280;10839;43.206;23.550;2023-04-01T03:02:22;95999.56;;;17.34;38.23
21361;BME280;10839;43.206;23.550;2023-04-01T03:04:47;96012.00;;;17.25;38.68
21361;BME280;10839;43.206;23.550;2023-04-01T03:07:13;96006.78;;;17.14;39.93
21361;BME280;10839;43.206;23.550;2023-04-01T03:09:39;96000.56;;;17.18;40.25
21361;BME280;10839;43.206;23.550;2023-04-01T03:12:07;96001.09;;;17.15;40.94
21361;BME280;10839;43.206;23.550;2023-04-01T03:14:43;96013.50;;;16.96;41.85
21361;BME280;10839;43.206;23.550;2023-04-01T03:17:09;96016.63;;;16.78;43.10
21361;BME280;10839;43.206;23.550;2023-04-01T03:19:35;96034.75;;;16.68;43.02
21361;BME280;10839;43.206;23.550;2023-04-01T03:22:05;96043.19;;;16.71;43.12
21361;BME280;10839;43.206;23.550;2023-04-01T03:24:31;96056.56;;;16.46;43.57
21361;BME280;10839;43.206;23.550;2023-04-01T03:26:57;96052.66;;;16.37;44.15
21361;BME280;10839;43.206;23.550;2023-04-01T03:29:23;96054.44;;;16.48;44.21
21361;BME280;10839;43.206;23.550;2023-04-01T03:31:49;96060.41;;;16.50;44.60
21361;BME280;10839;43.206;23.550;2023-04-01T03:34:15;96076.59;;;16.40;45.36
21361;BME280;10839;43.206;23.550;2023-04-01T03:36:41;96076.53;;;15.82;48.38
21361;BME280;10839;43.206;23.550;2023-04-01T03:39:07;96087.88;;;16.05;47.70
21361;BME280;10839;43.206;23.550;2023-04-01T03:41:40;96065.84;;;15.97;48.24
21361;BME280;10839;43.206;23.550;2023-04-01T03:44:06;96076.91;;;15.69;49.91
21361;BME280;10839;43.206;23.550;2023-04-01T03:46:32;96066.00;;;15.25;52.71
21361;BME280;10839;43.206;23.550;2023-04-01T03:48:58;96069.91;;;15.51;50.71
21361;BME280;10839;43.206;23.550;2023-04-01T03:51:24;96067.78;;;15.36;52.10
21361;BME280;10839;43.206;23.550;2023-04-01T03:53:49;96071.06;;;15.38;51.85
21361;BME280;10839;43.206;23.550;2023-04-01T03:56:16;96055.34;;;15.19;53.70
21361;BME280;10839;43.206;23.550;2023-04-01T03:58:42;96048.03;;;15.19;53.53
21361;BME280;10839;43.206;23.550;2023-04-01T04:01:20;96021.00;;;15.24;54.83
21361;BME280;10839;43.206;23.550;2023-04-01T04:03:49;96057.19;;;15.13;53.35
21361;BME280;10839;43.206;23.550;2023-04-01T04:06:16;96033.34;;;15.15;54.46
21361;BME280;10839;43.206;23.550;2023-04-01T04:08:43;96035.97;;;15.27;54.40
21361;BME280;10839;43.206;23.550;2023-04-01T04:11:10;96028.69;;;15.32;54.07
21361;BME280;10839;43.206;23.550;2023-04-01T04:13:40;96035.91;;;14.84;55.29
21361;BME280;10839;43.206;23.550;2023-04-01T04:16:07;96042.91;;;15.01;55.82
21361;BME280;10839;43.206;23.550;2023-04-01T04:18:37;96026.00;;;14.94;56.95
21361;BME280;10839;43.206;23.550;2023-04-01T04:21:03;96034.22;;;14.99;57.28
21361;BME280;10839;43.206;23.550;2023-04-01T04:23:30;96039.94;;;14.48;60.09
21361;BME280;10839;43.206;23.550;2023-04-01T04:26:05;96012.91;;;14.86;55.38
21361;BME280;10839;43.206;23.550;2023-04-01T04:28:33;96035.00;;;15.16;54.51
21361;BME280;10839;43.206;23.550;2023-04-01T04:30:59;96030.09;;;15.35;53.45
21361;BME280;10839;43.206;23.550;2023-04-01T04:33:25;96018.03;;;15.04;54.66
21361;BME280;10839;43.206;23.550;2023-04-01T04:35:55;96027.69;;;15.38;53.42
21361;BME280;10839;43.206;23.550;2023-04-01T04:38:22;96016.00;;;15.55;52.40
21361;BME280;10839;43.206;23.550;2023-04-01T04:40:48;96027.84;;;15.49;54.61
21361;BME280;10839;43.206;23.550;2023-04-01T04:43:17;96018.03;;;15.26;56.27
21361;BME280;10839;43.206;23.550;2023-04-01T04:45:43;96017.50;;;15.46;55.37
21361;BME280;10839;43.206;23.550;2023-04-01T04:48:15;96006.03;;;15.60;54.33
21361;BME280;10839;43.206;23.550;2023-04-01T04:50:47;96011.19;;;15.18;55.66
21361;BME280;10839;43.206;23.550;2023-04-01T04:53:16;96011.56;;;15.05;56.95
21361;BME280;10839;43.206;23.550;2023-04-01T04:55:49;96020.84;;;14.93;59.26
21361;BME280;10839;43.206;23.550;2023-04-01T04:58:28;96010.91;;;14.98;58.17
21361;BME280;10839;43.206;23.550;2023-04-01T05:00:54;96010.13;;;14.15;66.25
21361;BME280;10839;43.206;23.550;2023-04-01T05:03:25;95989.63;;;14.19;66.48
21361;BME280;10839;43.206;23.550;2023-04-01T05:05:53;96000.34;;;14.26;66.83
21361;BME280;10839;43.206;23.550;2023-04-01T05:08:19;95994.72;;;14.16;67.29
21361;BME280;10839;43.206;23.550;2023-04-01T05:10:46;95999.56;;;13.69;70.21
21361;BME280;10839;43.206;23.550;2023-04-01T05:13:12;95995.00;;;13.86;68.58
21361;BME280;10839;43.206;23.550;2023-04-01T05:15:39;95978.09;;;14.07;69.19
21361;BME280;10839;43.206;23.550;2023-04-01T05:18:05;95970.81;;;13.79;71.61
21361;BME280;10839;43.206;23.550;2023-04-01T05:20:31;95980.75;;;13.74;70.65
21361;BME280;10839;43.206;23.550;2023-04-01T05:22:58;95970.91;;;13.84;71.15
21361;BME280;10839;43.206;23.550;2023-04-01T05:25:25;95972.41;;;13.92;69.13
21361;BME280;10839;43.206;23.550;2023-04-01T05:27:52;95958.06;;;14.08;65.11
21361;BME280;10839;43.206;23.550;2023-04-01T05:30:18;95959.66;;;14.37;62.41
21361;BME280;10839;43.206;23.550;2023-04-01T05:33:19;95954.50;;;14.57;61.99
21361;BME280;10839;43.206;23.550;2023-04-01T05:35:45;95949.31;;;14.34;62.97
21361;BME280;10839;43.206;23.550;2023-04-01T05:38:12;95930.72;;;14.59;61.14
21361;BME280;10839;43.206;23.550;2023-04-01T05:40:38;95932.34;;;14.98;58.32
21361;BME280;10839;43.206;23.550;2023-04-01T05:43:04;95919.13;;;15.02;56.50
21361;BME280;10839;43.206;23.550;2023-04-01T05:45:30;95915.97;;;14.88;56.91
21361;BME280;10839;43.206;23.550;2023-04-01T05:48:28;95926.34;;;14.96;56.95
21361;BME280;10839;43.206;23.550;2023-04-01T05:50:54;95927.84;;;14.87;58.25
21361;BME280;10839;43.206;23.550;2023-04-01T05:53:20;95918.28;;;15.01;58.23
21361;BME280;10839;43.206;23.550;2023-04-01T05:55:46;95907.72;;;15.00;58.26
21361;BME280;10839;43.206;23.550;2023-04-01T05:58:13;95891.22;;;15.01;58.44
21361;BME280;10839;43.206;23.550;2023-04-01T06:00:42;95887.69;;;14.79;60.43
21361;BME280;10839;43.206;23.550;2023-04-01T06:03:08;95893.84;;;14.96;57.77
21361;BME280;10839;43.206;23.550;2023-04-01T06:05:42;95878.03;;;15.10;55.45
21361;BME280;10839;43.206;23.550;2023-04-01T06:08:16;95878.19;;;14.98;56.71
21361;BME280;10839;43.206;23.550;2023-04-01T06:14:09;95887.50;;;15.61;55.30
21361;BME280;10839;43.206;23.550;2023-04-01T06:18:59;95889.88;;;15.84;55.54
21361;BME280;10839;43.206;23.550;2023-04-01T06:32:48;95872.22;;;15.23;57.93
21361;BME280;10839;43.206;23.550;2023-04-01T06:35:31;95877.75;;;15.33;58.21
21361;BME280;10839;43.206;23.550;2023-04-01T06:38:20;95875.91;;;15.38;56.42
21361;BME280;10839;43.206;23.550;2023-04-01T06:46:47;95881.47;;;16.12;53.72
21361;BME280;10839;43.206;23.550;2023-04-01T06:56:18;95880.28;;;16.03;51.91
21361;BME280;10839;43.206;23.550;2023-04-01T06:59:18;95869.66;;;16.33;46.53
21361;BME280;10839;43.206;23.550;2023-04-01T07:04:46;95842.97;;;17.58;40.31
21361;BME280;10839;43.206;23.550;2023-04-01T07:07:31;95847.34;;;17.54;41.41
21361;BME280;10839;43.206;23.550;2023-04-01T07:10:06;95840.13;;;18.84;38.90
21361;BME280;10839;43.206;23.550;2023-04-01T07:12:58;95855.47;;;21.15;35.27
21361;BME280;10839;43.206;23.550;2023-04-01T07:24:31;95855.97;;;19.41;38.65
21361;BME280;10839;43.206;23.550;2023-04-01T07:27:08;95868.16;;;20.30;36.38
21361;BME280;10839;43.206;23.550;2023-04-01T07:29:38;95872.06;;;19.37;38.04
21361;BME280;10839;43.206;23.550;2023-04-01T07:32:35;95860.47;;;20.33;36.09
21361;BME280;10839;43.206;23.550;2023-04-01T07:35:23;95866.00;;;19.50;39.87
21361;BME280;10839;43.206;23.550;2023-04-01T07:38:19;95873.84;;;19.08;41.63
21361;BME280;10839;43.206;23.550;2023-04-01T07:49:34;95876.38;;;17.39;46.97
21361;BME280;10839;43.206;23.550;2023-04-01T07:57:23;95862.31;;;17.67;42.93
21361;BME280;10839;43.206;23.550;2023-04-01T08:00:06;95853.31;;;18.12;40.71
21361;BME280;10839;43.206;23.550;2023-04-01T08:06:03;95862.59;;;18.01;42.95
21361;BME280;10839;43.206;23.550;2023-04-01T08:11:39;95856.59;;;17.94;43.10
21361;BME280;10839;43.206;23.550;2023-04-01T08:14:53;95845.72;;;18.04;42.20
21361;BME280;10839;43.206;23.550;2023-04-01T08:20:36;95830.06;;;19.28;40.12
21361;BME280;10839;43.206;23.550;2023-04-01T08:23:05;95833.81;;;19.47;39.07
21361;BME280;10839;43.206;23.550;2023-04-01T08:25:42;95837.97;;;19.40;38.49
21361;BME280;10839;43.206;23.550;2023-04-01T08:28:26;95829.59;;;19.65;37.95
21361;BME280;10839;43.206;23.550;2023-04-01T08:31:31;95834.09;;;20.18;37.87
21361;BME280;10839;43.206;23.550;2023-04-01T08:34:00;95821.34;;;20.37;37.30
21361;BME280;10839;43.206;23.550;2023-04-01T08:36:40;95820.06;;;20.29;37.10
21361;BME280;10839;43.206;23.550;2023-04-01T08:39:35;95804.56;;;20.49;37.17
21361;BME280;10839;43.206;23.550;2023-04-01T08:56:23;95852.22;;;18.53;52.34
21361;BME280;10839;43.206;23.550;2023-04-01T08:59:14;95850.69;;;19.00;52.32
21361;BME280;10839;43.206;23.550;2023-04-01T09:05:22;95845.31;;;19.44;51.71
21361;BME280;10839;43.206;23.550;2023-04-01T09:08:08;95841.75;;;18.85;54.14
21361;BME280;10839;43.206;23.550;2023-04-01T09:13:29;95853.41;;;19.59;50.08
21361;BME280;10839;43.206;23.550;2023-04-01T09:16:17;95860.19;;;19.13;51.85
21361;BME280;10839;43.206;23.550;2023-04-01T09:21:54;95835.75;;;19.42;51.43
21361;BME280;10839;43.206;23.550;2023-04-01T09:27:40;95839.00;;;18.90;53.16
21361;BME280;10839;43.206;23.550;2023-04-01T09:33:15;95824.47;;;19.58;52.09
21361;BME280;10839;43.206;23.550;2023-04-01T09:44:28;95783.53;;;19.58;52.81
21361;BME280;10839;43.206;23.550;2023-04-01T09:48:30;95782.34;;;18.82;55.63
21361;BME280;10839;43.206;23.550;2023-04-01T10:02:12;95772.22;;;19.70;53.93
21361;BME280;10839;43.206;23.550;2023-04-01T10:15:58;95759.72;;;19.25;54.52
21361;BME280;10839;43.206;23.550;2023-04-01T10:18:36;95757.09;;;19.10;55.60
21361;BME280;10839;43.206;23.550;2023-04-01T10:36:22;95762.13;;;18.19;57.91
21361;BME280;10839;43.206;23.550;2023-04-01T10:41:49;95762.97;;;18.10;58.75
21361;BME280;10839;43.206;23.550;2023-04-01T11:15:07;95724.69;;;20.04;52.57
21361;BME280;10839;43.206;23.550;2023-04-01T11:28:59;95727.63;;;19.12;58.58
21361;BME280;10839;43.206;23.550;2023-04-01T11:40:00;95736.81;;;18.14;65.53
21361;BME280;10839;43.206;23.550;2023-04-01T11:49:06;95784.97;;;17.13;70.53
21361;BME280;10839;43.206;23.550;2023-04-01T11:52:05;95791.44;;;16.25;76.55
21361;BME280;10839;43.206;23.550;2023-04-01T12:17:48;95868.78;;;14.84;100.00
21361;BME280;10839;43.206;23.550;2023-04-01T12:31:37;95888.16;;;14.33;100.00
21361;BME280;10839;43.206;23.550;2023-04-01T12:37:27;95870.28;;;14.32;100.00
21361;BME280;10839;43.206;23.550;2023-04-01T12:40:19;95875.06;;;13.92;100.00
21361;BME280;10839;43.206;23.550;2023-04-01T12:43:05;95876.50;;;13.50;100.00
21361;BME280;10839;43.206;23.550;2023-04-01T12:51:20;95860.81;;;13.80;100.00
21361;BME280;10839;43.206;23.550;2023-04-01T12:54:24;95848.94;;;14.19;100.00
21361;BME280;10839;43.206;23.550;2023-04-01T13:14:22;95802.75;;;16.53;98.43
21361;BME280;10839;43.206;23.550;2023-04-01T13:19:38;95778.25;;;15.28;100.00
21361;BME280;10839;43.206;23.550;2023-04-01T13:22:45;95776.88;;;14.51;100.00
21361;BME280;10839;43.206;23.550;2023-04-01T13:31:16;95750.28;;;13.29;100.00
21361;BME280;10839;43.206;23.550;2023-04-01T13:36:40;95730.16;;;13.58;100.00
21361;BME280;10839;43.206;23.550;2023-04-01T13:42:25;95702.31;;;14.17;100.00
21361;BME280;10839;43.206;23.550;2023-04-01T13:47:48;95679.81;;;14.91;100.00
21361;BME280;10839;43.206;23.550;2023-04-01T13:56:24;95672.22;;;13.49;100.00
21361;BME280;10839;43.206;23.550;2023-04-01T14:04:18;95657.72;;;13.98;100.00
21361;BME280;10839;43.206;23.550;2023-04-01T14:07:02;95658.66;;;13.65;100.00
21361;BME280;10839;43.206;23.550;2023-04-01T14:09:57;95647.16;;;13.75;100.00
21361;BME280;10839;43.206;23.550;2023-04-01T14:12:57;95653.72;;;13.79;100.00
21361;BME280;10839;43.206;23.550;2023-04-01T14:15:34;95653.84;;;13.51;100.00
21361;BME280;10839;43.206;23.550;2023-04-01T14:18:42;95619.09;;;13.38;100.00
21361;BME280;10839;43.206;23.550;2023-04-01T14:29:15;95621.75;;;13.00;100.00
21361;BME280;10839;43.206;23.550;2023-04-01T14:38:28;95629.47;;;13.08;100.00
21361;BME280;10839;43.206;23.550;2023-04-01T14:40:54;95624.34;;;13.28;100.00
21361;BME280;10839;43.206;23.550;2023-04-01T14:46:22;95614.84;;;13.42;100.00
21361;BME280;10839;43.206;23.550;2023-04-01T14:48:58;95629.13;;;13.59;100.00
21361;BME280;10839;43.206;23.550;2023-04-01T14:54:08;95637.09;;;13.92;100.00
21361;BME280;10839;43.206;23.550;2023-04-01T14:56:42;95636.91;;;13.77;100.00
21361;BME280;10839;43.206;23.550;2023-04-01T14:59:25;95630.72;;;14.03;100.00
21361;BME280;10839;43.206;23.550;2023-04-01T15:12:57;95636.78;;;14.10;100.00
21361;BME280;10839;43.206;23.550;2023-04-01T15:16:06;95634.00;;;14.05;100.00
21361;BME280;10839;43.206;23.550;2023-04-01T15:21:38;95648.91;;;13.86;100.00
21361;BME280;10839;43.206;23.550;2023-04-01T15:24:21;95649.47;;;13.66;100.00
21361;BME280;10839;43.206;23.550;2023-04-01T15:27:19;95658.47;;;13.72;100.00
21361;BME280;10839;43.206;23.550;2023-04-01T15:35:39;95674.25;;;13.80;100.00
21361;BME280;10839;43.206;23.550;2023-04-01T15:38:16;95688.22;;;13.93;100.00
21361;BME280;10839;43.206;23.550;2023-04-01T15:43:43;95796.59;;;14.25;100.00
21361;BME280;10839;43.206;23.550;2023-04-01T15:49:05;95812.81;;;13.37;94.01
21361;BME280;10839;43.206;23.550;2023-04-01T16:08:36;95823.38;;;12.54;93.80
21361;BME280;10839;43.206;23.550;2023-04-01T16:11:39;95817.56;;;12.34;97.86
21361;BME280;10839;43.206;23.550;2023-04-01T16:19:59;95841.94;;;12.39;98.41
21361;BME280;10839;43.206;23.550;2023-04-01T16:25:33;95832.13;;;12.33;98.55
21361;BME280;10839;43.206;23.550;2023-04-01T16:31:09;95828.34;;;12.34;89.38
21361;BME280;10839;43.206;23.550;2023-04-01T16:33:40;95828.88;;;12.20;98.33
21361;BME280;10839;43.206;23.550;2023-04-01T16:36:48;95818.94;;;12.48;92.75
21361;BME280;10839;43.206;23.550;2023-04-01T16:44:54;95824.06;;;12.61;93.70
21361;BME280;10839;43.206;23.550;2023-04-01T16:47:23;95824.16;;;12.66;93.97
21361;BME280;10839;43.206;23.550;2023-04-01T16:49:59;95831.69;;;12.13;95.02
21361;BME280;10839;43.206;23.550;2023-04-01T16:55:35;95828.97;;;12.64;86.41
21361;BME280;10839;43.206;23.550;2023-04-01T16:58:08;95819.50;;;12.22;88.13
21361;BME280;10839;43.206;23.550;2023-04-01T17:00:41;95819.50;;;12.62;83.03
21361;BME280;10839;43.206;23.550;2023-04-01T17:03:29;95823.88;;;12.79;76.68
21361;BME280;10839;43.206;23.550;2023-04-01T17:09:16;95831.22;;;12.67;79.15
21361;BME280;10839;43.206;23.550;2023-04-01T17:17:48;95847.94;;;12.41;82.42
21361;BME280;10839;43.206;23.550;2023-04-01T17:23:30;95851.53;;;12.58;84.27
21361;BME280;10839;43.206;23.550;2023-04-01T17:28:46;95864.44;;;12.56;83.88
21361;BME280;10839;43.206;23.550;2023-04-01T17:31:37;95858.31;;;12.72;83.02
21361;BME280;10839;43.206;23.550;2023-04-01T17:34:31;95861.34;;;12.13;88.73
21361;BME280;10839;43.206;23.550;2023-04-01T17:37:06;95864.97;;;12.30;88.32
21361;BME280;10839;43.206;23.550;2023-04-01T17:45:42;95894.41;;;12.09;93.34
21361;BME280;10839;43.206;23.550;2023-04-01T17:48:24;95891.97;;;12.07;94.46
21361;BME280;10839;43.206;23.550;2023-04-01T17:53:36;95902.88;;;11.89;95.81
21361;BME280;10839;43.206;23.550;2023-04-01T17:56:55;95926.19;;;11.95;93.76
21361;BME280;10839;43.206;23.550;2023-04-01T17:59:36;95921.31;;;11.63;94.49
21361;BME280;10839;43.206;23.550;2023-04-01T18:10:49;95957.28;;;11.68;96.02
21361;BME280;10839;43.206;23.550;2023-04-01T18:21:47;95956.72;;;11.48;96.31
21361;BME280;10839;43.206;23.550;2023-04-01T18:24:33;95963.69;;;11.26;99.60
21361;BME280;10839;43.206;23.550;2023-04-01T18:32:28;95990.25;;;11.22;100.00
21361;BME280;10839;43.206;23.550;2023-04-01T18:35:14;95993.91;;;11.28;100.00
21361;BME280;10839;43.206;23.550;2023-04-01T18:38:10;95989.72;;;11.32;99.39
21361;BME280;10839;43.206;23.550;2023-04-01T18:40:48;95988.81;;;11.20;100.00
21361;BME280;10839;43.206;23.550;2023-04-01T18:43:42;96001.31;;;11.32;100.00
21361;BME280;10839;43.206;23.550;2023-04-01T18:46:38;95995.66;;;11.22;99.38
21361;BME280;10839;43.206;23.550;2023-04-01T18:52:44;96006.22;;;11.06;91.77
21361;BME280;10839;43.206;23.550;2023-04-01T18:58:06;96023.50;;;11.28;85.73
21361;BME280;10839;43.206;23.550;2023-04-01T19:00:51;96024.66;;;11.20;84.18
21361;BME280;10839;43.206;23.550;2023-04-01T19:03:24;96024.75;;;11.14;84.63
21361;BME280;10839;43.206;23.550;2023-04-01T19:05:54;96033.28;;;11.11;86.93
21361;BME280;10839;43.206;23.550;2023-04-01T19:08:31;96040.00;;;11.02;89.91
21361;BME280;10839;43.206;23.550;2023-04-01T19:13:48;96043.78;;;11.30;82.88
21361;BME280;10839;43.206;23.550;2023-04-01T19:19:25;96047.19;;;11.26;87.35
21361;BME280;10839;43.206;23.550;2023-04-01T19:22:11;96046.56;;;11.24;88.33
21361;BME280;10839;43.206;23.550;2023-04-01T19:28:22;96052.09;;;11.29;84.76
21361;BME280;10839;43.206;23.550;2023-04-01T19:30:59;96043.56;;;11.32;86.09
21361;BME280;10839;43.206;23.550;2023-04-01T19:33:58;96054.97;;;11.16;84.66
21361;BME280;10839;43.206;23.550;2023-04-01T19:36:39;96056.75;;;11.22;85.56
21361;BME280;10839;43.206;23.550;2023-04-01T19:50:52;96078.28;;;11.22;85.71
21361;BME280;10839;43.206;23.550;2023-04-01T19:53:52;96075.59;;;11.22;84.87
21361;BME280;10839;43.206;23.550;2023-04-01T19:56:23;96071.41;;;11.26;83.96
21361;BME280;10839;43.206;23.550;2023-04-01T19:59:14;96074.19;;;10.59;87.86
21361;BME280;10839;43.206;23.550;2023-04-01T20:04:40;96087.69;;;10.95;86.20
21361;BME280;10839;43.206;23.550;2023-04-01T20:07:19;96092.19;;;10.83;88.13
21361;BME280;10839;43.206;23.550;2023-04-01T20:14:55;96104.44;;;10.97;87.31
21361;BME280;10839;43.206;23.550;2023-04-01T20:17:32;96097.09;;;10.86;88.65
21361;BME280;10839;43.206;23.550;2023-04-01T20:25:27;96111.41;;;10.62;88.42
21361;BME280;10839;43.206;23.550;2023-04-01T20:28:09;96097.00;;;10.56;88.28
21361;BME280;10839;43.206;23.550;2023-04-01T20:31:01;96107.69;;;10.63;86.17
21361;BME280;10839;43.206;23.550;2023-04-01T20:36:30;96108.31;;;10.83;82.32
21361;BME280;10839;43.206;23.550;2023-04-01T20:39:40;96118.94;;;10.96;80.24
21361;BME280;10839;43.206;23.550;2023-04-01T20:45:25;96119.88;;;11.08;79.01
21361;BME280;10839;43.206;23.550;2023-04-01T20:53:29;96120.13;;;11.00;78.37
21361;BME280;10839;43.206;23.550;2023-04-01T20:56:34;96120.28;;;10.87;84.37
21361;BME280;10839;43.206;23.550;2023-04-01T21:02:03;96124.47;;;10.33;89.32
21361;BME280;10839;43.206;23.550;2023-04-01T21:04:43;96121.25;;;10.18;87.63
21361;BME280;10839;43.206;23.550;2023-04-01T21:08:14;96136.59;;;10.11;88.77
21361;BME280;10839;43.206;23.550;2023-04-01T21:27:42;96119.41;;;10.93;78.42
21361;BME280;10839;43.206;23.550;2023-04-01T21:46:54;96131.66;;;11.07;78.16
21361;BME280;10839;43.206;23.550;2023-04-01T22:09:16;96137.66;;;11.63;67.30
21361;BME280;10839;43.206;23.550;2023-04-01T22:14:42;96131.16;;;11.52;67.55
21361;BME280;10839;43.206;23.550;2023-04-01T22:17:32;96129.75;;;11.68;65.28
21361;BME280;10839;43.206;23.550;2023-04-01T22:28:38;96126.44;;;11.48;65.36
21361;BME280;10839;43.206;23.550;2023-04-01T22:31:08;96124.72;;;11.72;65.04
21361;BME280;10839;43.206;23.550;2023-04-01T22:33:48;96133.94;;;11.64;64.08
21361;BME280;10839;43.206;23.550;2023-04-01T22:39:22;96128.47;;;11.71;64.11
21361;BME280;10839;43.206;23.550;2023-04-01T22:49:56;96139.16;;;11.77;63.09
21361;BME280;10839;43.206;23.550;2023-04-01T22:52:42;96134.81;;;11.58;64.43
21361;BME280;10839;43.206;23.550;2023-04-01T22:55:30;96140.84;;;11.90;62.62
21361;BME280;10839;43.206;23.550;2023-04-01T22:58:03;96125.91;;;11.57;63.22